createdAt,value
2023-03-01T05:13:46.771Z,223.80
2023-03-01T05:18:48.501Z,255.70
2023-03-01T05:23:50.713Z,255.00
2023-03-01T05:28:52.378Z,234.60
2023-03-01T05:38:56.682Z,258.40
2023-03-01T05:43:58.353Z,218.10
2023-03-01T05:49:01.030Z,295.70
2023-03-01T05:54:02.883Z,315.20
2023-03-01T05:59:08.421Z,412.60
2023-03-01T06:04:10.444Z,457.40
2023-03-01T06:09:12.247Z,285.20
2023-03-01T06:14:15.667Z,307.20
2023-03-01T06:19:17.629Z,324.10
2023-03-01T06:29:20.990Z,241.00
2023-03-01T06:34:22.749Z,220.30
2023-03-01T06:39:24.522Z,181.70
2023-03-01T06:44:26.905Z,240.50
2023-03-01T06:49:28.578Z,257.00
2023-03-01T06:59:32.460Z,209.80
2023-03-01T07:04:34.182Z,198.00
2023-03-01T07:09:35.901Z,180.10
2023-03-01T07:19:39.249Z,157.70
2023-03-01T07:24:42.729Z,136.50
2023-03-01T07:29:44.478Z,106.80
2023-03-01T07:39:47.825Z,108.90
2023-03-01T07:44:49.553Z,116.10
2023-03-01T07:54:52.861Z,120.20
2023-03-01T08:04:56.224Z,110.30
2023-03-01T08:09:57.909Z,120.50
2023-03-01T08:14:59.714Z,134.10
2023-03-01T08:25:03.220Z,119.10
2023-03-01T08:30:05.507Z,132.00
2023-03-01T08:35:08.680Z,122.00
2023-03-01T08:40:11.095Z,115.30
2023-03-01T08:45:15.160Z,118.70
2023-03-01T08:50:16.921Z,100.20
2023-03-01T08:55:18.786Z,93.70
2023-03-01T09:00:20.871Z,73.50
2023-03-01T09:05:22.650Z,91.00
2023-03-01T09:10:24.492Z,80.60
2023-03-01T09:15:26.250Z,70.00
2023-03-01T09:20:27.932Z,61.70
